Ogden, IL (61859)

6:08 PM CDT on April 25, 2015 (GMT -0500)
Crestlake | | Change Station
CLOSE
Current Station
Personal Weather Station
Location: Saint Joseph, IL
Elevation: 678 ft
Nearby Weather Stations

Elev 678 ft 40.11 °N, 88.03 °W | Updated 6 seconds ago

Overcast
Overcast
49.1 °F
Feels Like 45 °F
N
9.8
Wind Variable Wind from NNE
Gusts 11.9 mph

Today
High -- | Low -- °F
--% Chance of Precip.
Yesterday
High -- | Low -- °F
Precip. -- in
5:59 AM 7:40 PM
Waxing Crescent, 50% visible
Pressure 29.65 in
Visibility 10.0 miles
Clouds Overcast 1000 ft
Windchill 45 °F
Dew Point 46 °F
Humidity 89%
Rainfall 0.65 in
Snow Depth Not available.
UV 0 out of 12
Pollen 3.20 out of 12
Air Quality Not available.
Flu Activity Regional
METAR KTIP 252255Z AUTO 05015G20KT 10SM OVC010 09/07 A2965

More Conditions Fewer Conditions

Pressure 29.65 in
Visibility 10.0 miles
Clouds Overcast 1000 ft
Windchill 45 °F
Dew Point 46 °F
Humidity 89%
Rainfall 0.65 in
Snow Depth Not available.
UV 0 out of 12
Pollen 3.20 out of 12
Air Quality Not available.
Flu Activity Regional
METAR KTIP 252255Z AUTO 05015G20KT 10SM OVC010 09/07 A2965

More Conditions Fewer Conditions

10-Day Weather Forecast

Almanac

Astronomy

Apr. 25, 2015 Rise Set
Actual Time
Civil Twilight
Nautical Twilight
Astronomical Twilight
Moon
Length of Visible Light
Length of Day
Tomorrow will be .
, % of the Moon is Illuminated

Today's Extremes

State Highs State Lows

Community

WunderPhotos

Upload Photos

1,816,842 photos uploaded!

WunderBlogs® & News

Nearby

Air Quality

  Air Quality AQ Index Pollutant
Not available.

Snow Depth

Station Depth Elevation

Earthquake Activity

City Distance Mag. Time & Date
Minimum magnitude displayed is 2.5.

Coastal Water Temperatures

Place Temperature

Stations

Nearby Weather Stations

Station Location Temp. Windchill Dew Point Humidity Wind Precip. Elev Updated Type